EDT,Max TemperatureF,Mean TemperatureF,Min TemperatureF,Max Dew PointF,MeanDew PointF,Min DewpointF,Max Humidity, Mean Humidity, Min Humidity, Max Sea Level PressureIn, Mean Sea Level PressureIn, Min Sea Level PressureIn, Max VisibilityMiles, Mean VisibilityMiles, Min VisibilityMiles, Max Wind SpeedMPH, Mean Wind SpeedMPH, Max Gust SpeedMPH,PrecipitationIn, CloudCover, Events, WindDirDegrees
2013-9-1,81,74,66,68,66,62,100,77,54,29.94,29.89,29.84,10,6,2,7,2,12,0.11,7,Rain,334
2013-9-2,77,69,61,68,66,61,100,85,69,29.91,29.83,29.74,10,8,0,14,5,30,0.25,6,Fog-Rain-Thunderstorm,169
2013-9-3,73,65,57,62,59,55,100,79,57,29.85,29.79,29.75,10,5,0,14,3,22,0.04,6,Fog-Rain,213
2013-9-4,71,62,52,58,55,48,100,76,52,29.97,29.92,29.86,10,9,1,17,5,28,0.15,5,Rain,292
2013-9-5,62,51,40,57,46,35,100,70,39,30.23,30.04,29.93,10,10,4,18,6,26,0.05,4,Rain,333
2013-9-6,65,51,36,46,39,35,100,67,34,30.32,30.23,30.11,10,6,0,12,3,16,0.00,2,Fog,251
2013-9-7,70,58,45,54,47,42,93,65,37,30.11,30.00,29.87,10,10,10,14,3,21,0.01,3,,222
2013-9-8,58,49,40,54,45,37,96,72,47,30.16,29.95,29.81,10,10,5,18,8,33,0.12,5,Rain,306
2013-9-9,68,52,35,44,38,35,100,66,32,30.26,30.19,30.12,10,7,0,14,3,16,0.00,2,Fog,189
2013-9-10,74,61,47,66,57,45,93,86,79,30.14,30.08,30.04,10,8,1,12,4,15,0.56,6,Rain,166
2013-9-11,88,75,61,70,65,61,100,75,50,30.07,30.03,29.97,10,5,0,25,6,38,0.28,2,Fog-Rain-Thunderstorm,199
2013-9-12,78,71,64,68,65,63,100,81,62,29.97,29.81,29.68,10,6,0,18,3,24,0.99,6,Fog-Rain-Thunderstorm,204
2013-9-13,65,58,51,64,57,49,100,95,89,29.89,29.75,29.66,10,8,2,16,7,21,0.89,8,Rain,311
2013-9-14,59,50,41,49,46,41,100,83,66,30.14,29.99,29.88,10,10,2,15,6,21,0.01,6,,310
2013-9-15,67,52,37,50,44,37,100,74,48,30.19,30.13,30.06,10,6,0,8,2,14,0.01,2,Fog,248
2013-9-16,55,45,34,52,45,33,100,78,56,30.38,30.16,30.06,10,9,6,15,5,23,0.14,6,Rain,315
2013-9-17,60,46,31,43,36,30,100,74,47,30.53,30.44,30.38,10,7,0,8,2,13,0.00,2,Fog,260
2013-9-18,70,53,36,50,41,36,100,70,40,30.38,30.31,30.19,10,5,0,8,1,12,0.01,2,Fog,119
2013-9-19,73,57,40,54,45,41,100,71,41,30.22,30.17,30.09,10,6,0,7,1,9,0.02,2,Fog,142
2013-9-20,76,60,44,55,49,44,100,72,43,30.17,30.09,29.99,10,5,0,15,5,20,0.00,3,Fog,185
2013-9-21,71,62,53,60,55,51,93,73,53,29.99,29.83,29.65,10,10,6,24,13,31,0.04,2,Rain,176
2013-9-22,63,54,45,61,50,39,100,84,67,29.92,29.72,29.61,10,9,2,17,8,24,0.64,7,Rain,281
2013-9-23,49,45,41,39,38,36,86,79,71,30.09,30.02,29.92,10,10,5,17,8,24,0.00,8,Rain,314
2013-9-24,57,50,43,45,39,37,86,70,54,30.07,30.01,29.95,10,10,10,21,6,25,0.00,7,,313
2013-9-25,58,50,41,47,45,39,93,78,62,30.08,30.00,29.96,10,10,10,12,4,14,0.00,6,,353
2013-9-26,60,50,40,47,44,37,100,80,60,30.23,30.13,30.07,10,7,0,15,4,20,0.00,7,Fog,1
2013-9-27,65,54,43,51,47,45,100,78,56,30.37,30.30,30.23,10,10,10,10,2,12,0.00,5,,334
2013-9-28,71,57,43,54,47,43,100,70,39,30.45,30.38,30.32,10,5,0,7,1,9,0.00,2,Fog,220
2013-9-29,70,56,42,53,46,42,100,72,44,30.31,30.24,30.14,10,5,0,10,2,14,0.00,3,Fog,197
2013-9-30,70,55,39,52,45,39,100,72,44,30.17,30.11,30.03,10,5,0,7,0,10,0.00,2,Fog,-1